sensor_id;sensor_type;location;lat;lon;timestamp;pressure;altitude;pressure_sealevel;temperature;humidity
74960;BME280;63518;49.572;1.106;2024-03-02T00:01:15;97690.44;;;3.51;100.00
74960;BME280;63518;49.572;1.106;2024-03-02T00:03:42;97694.97;;;3.13;100.00
74960;BME280;63518;49.572;1.106;2024-03-02T00:06:10;97684.53;;;3.20;100.00
74960;BME280;63518;49.572;1.106;2024-03-02T00:08:37;97705.69;;;3.28;100.00
74960;BME280;63518;49.572;1.106;2024-03-02T00:11:04;97698.16;;;3.20;100.00
74960;BME280;63518;49.572;1.106;2024-03-02T00:13:31;97687.75;;;3.22;100.00
74960;BME280;63518;49.572;1.106;2024-03-02T00:15:59;97691.97;;;3.33;100.00
74960;BME280;63518;49.572;1.106;2024-03-02T00:18:30;97689.50;;;3.13;100.00
74960;BME280;63518;49.572;1.106;2024-03-02T00:20:58;97687.91;;;3.31;100.00
74960;BME280;63518;49.572;1.106;2024-03-02T00:23:30;97695.28;;;3.30;100.00
74960;BME280;63518;49.572;1.106;2024-03-02T00:26:00;97667.19;;;2.87;100.00
74960;BME280;63518;49.572;1.106;2024-03-02T00:30:59;97685.09;;;3.17;100.00
74960;BME280;63518;49.572;1.106;2024-03-02T00:33:36;97688.97;;;2.87;100.00
74960;BME280;63518;49.572;1.106;2024-03-02T00:36:05;97691.72;;;3.11;100.00
74960;BME280;63518;49.572;1.106;2024-03-02T00:38:34;97684.75;;;3.24;100.00
74960;BME280;63518;49.572;1.106;2024-03-02T00:41:05;97692.34;;;3.27;100.00
74960;BME280;63518;49.572;1.106;2024-03-02T00:46:24;97690.63;;;3.12;100.00
74960;BME280;63518;49.572;1.106;2024-03-02T00:49:00;97695.44;;;3.39;100.00
74960;BME280;63518;49.572;1.106;2024-03-02T00:51:30;97700.94;;;3.15;100.00
74960;BME280;63518;49.572;1.106;2024-03-02T00:54:03;97698.16;;;3.20;100.00
74960;BME280;63518;49.572;1.106;2024-03-02T00:56:32;97695.44;;;2.96;100.00
74960;BME280;63518;49.572;1.106;2024-03-02T00:58:59;97697.06;;;2.97;100.00
74960;BME280;63518;49.572;1.106;2024-03-02T01:01:25;97699.53;;;3.42;100.00
74960;BME280;63518;49.572;1.106;2024-03-02T01:03:53;97695.47;;;3.15;100.00
74960;BME280;63518;49.572;1.106;2024-03-02T01:06:20;97686.06;;;3.02;100.00
74960;BME280;63518;49.572;1.106;2024-03-02T01:08:47;97687.06;;;3.35;100.00
74960;BME280;63518;49.572;1.106;2024-03-02T01:11:17;97692.47;;;3.17;100.00
74960;BME280;63518;49.572;1.106;2024-03-02T01:13:45;97678.91;;;2.88;100.00
74960;BME280;63518;49.572;1.106;2024-03-02T01:16:13;97675.31;;;2.92;100.00
74960;BME280;63518;49.572;1.106;2024-03-02T01:18:42;97676.13;;;2.93;100.00
74960;BME280;63518;49.572;1.106;2024-03-02T01:21:09;97679.91;;;2.97;100.00
74960;BME280;63518;49.572;1.106;2024-03-02T01:23:35;97676.94;;;2.93;100.00
74960;BME280;63518;49.572;1.106;2024-03-02T01:26:02;97687.31;;;2.91;100.00
74960;BME280;63518;49.572;1.106;2024-03-02T01:28:29;97681.03;;;3.15;100.00
74960;BME280;63518;49.572;1.106;2024-03-02T01:30:56;97670.06;;;2.48;100.00
74960;BME280;63518;49.572;1.106;2024-03-02T01:33:23;97667.88;;;2.74;100.00
74960;BME280;63518;49.572;1.106;2024-03-02T01:35:50;97673.34;;;2.74;100.00
74960;BME280;63518;49.572;1.106;2024-03-02T01:38:16;97671.00;;;2.86;100.00
74960;BME280;63518;49.572;1.106;2024-03-02T01:40:43;97676.28;;;2.77;100.00
74960;BME280;63518;49.572;1.106;2024-03-02T01:43:11;97679.47;;;2.61;100.00
74960;BME280;63518;49.572;1.106;2024-03-02T01:45:38;97669.72;;;2.54;100.00
74960;BME280;63518;49.572;1.106;2024-03-02T01:48:06;97667.25;;;2.58;100.00
74960;BME280;63518;49.572;1.106;2024-03-02T01:50:34;97671.44;;;2.45;100.00
74960;BME280;63518;49.572;1.106;2024-03-02T01:53:01;97658.06;;;2.49;100.00
74960;BME280;63518;49.572;1.106;2024-03-02T01:55:31;97646.72;;;2.66;100.00
74960;BME280;63518;49.572;1.106;2024-03-02T01:58:00;97667.56;;;2.51;100.00
74960;BME280;63518;49.572;1.106;2024-03-02T02:00:27;97663.34;;;2.40;100.00
74960;BME280;63518;49.572;1.106;2024-03-02T02:02:54;97639.41;;;2.61;100.00
74960;BME280;63518;49.572;1.106;2024-03-02T02:05:21;97643.09;;;2.46;100.00
74960;BME280;63518;49.572;1.106;2024-03-02T02:07:48;97642.91;;;2.67;100.00
74960;BME280;63518;49.572;1.106;2024-03-02T02:10:15;97647.75;;;2.70;100.00
74960;BME280;63518;49.572;1.106;2024-03-02T02:12:42;97643.09;;;2.46;100.00
74960;BME280;63518;49.572;1.106;2024-03-02T02:15:29;97642.38;;;2.65;100.00
74960;BME280;63518;49.572;1.106;2024-03-02T02:17:58;97637.28;;;2.82;100.00
74960;BME280;63518;49.572;1.106;2024-03-02T02:20:26;97638.03;;;2.64;100.00
74960;BME280;63518;49.572;1.106;2024-03-02T02:22:57;97635.41;;;2.53;100.00
74960;BME280;63518;49.572;1.106;2024-03-02T02:25:24;97638.72;;;2.50;100.00
74960;BME280;63518;49.572;1.106;2024-03-02T02:27:51;97628.75;;;2.41;100.00
74960;BME280;63518;49.572;1.106;2024-03-02T02:30:20;97621.97;;;2.62;100.00
74960;BME280;63518;49.572;1.106;2024-03-02T02:32:47;97630.50;;;2.56;100.00
74960;BME280;63518;49.572;1.106;2024-03-02T02:35:14;97602.72;;;2.53;100.00
74960;BME280;63518;49.572;1.106;2024-03-02T02:37:42;97616.25;;;2.64;100.00
74960;BME280;63518;49.572;1.106;2024-03-02T02:40:09;97625.91;;;2.51;100.00
74960;BME280;63518;49.572;1.106;2024-03-02T02:42:36;97620.44;;;2.27;100.00
74960;BME280;63518;49.572;1.106;2024-03-02T02:45:03;97616.41;;;2.48;100.00
74960;BME280;63518;49.572;1.106;2024-03-02T02:47:30;97609.78;;;2.54;100.00
74960;BME280;63518;49.572;1.106;2024-03-02T02:49:57;97621.31;;;2.46;100.00
74960;BME280;63518;49.572;1.106;2024-03-02T02:52:23;97628.59;;;2.80;100.00
74960;BME280;63518;49.572;1.106;2024-03-02T02:54:50;97615.88;;;2.70;100.00
74960;BME280;63518;49.572;1.106;2024-03-02T02:57:18;97629.22;;;2.72;100.00
74960;BME280;63518;49.572;1.106;2024-03-02T02:59:44;97637.16;;;2.68;100.00
74960;BME280;63518;49.572;1.106;2024-03-02T03:02:11;97623.53;;;2.44;100.00
74960;BME280;63518;49.572;1.106;2024-03-02T03:04:39;97620.84;;;2.63;100.00
74960;BME280;63518;49.572;1.106;2024-03-02T03:07:06;97614.81;;;2.71;100.00
74960;BME280;63518;49.572;1.106;2024-03-02T03:09:37;97602.34;;;2.41;100.00
74960;BME280;63518;49.572;1.106;2024-03-02T03:12:05;97610.72;;;2.45;100.00
74960;BME280;63518;49.572;1.106;2024-03-02T03:14:32;97616.69;;;2.71;100.00
74960;BME280;63518;49.572;1.106;2024-03-02T03:16:58;97615.72;;;2.62;100.00
74960;BME280;63518;49.572;1.106;2024-03-02T03:19:25;97604.34;;;2.54;100.00
74960;BME280;63518;49.572;1.106;2024-03-02T03:21:52;97594.34;;;2.50;100.00
74960;BME280;63518;49.572;1.106;2024-03-02T03:24:19;97594.84;;;2.76;100.00
74960;BME280;63518;49.572;1.106;2024-03-02T03:26:46;97596.41;;;2.82;100.00
74960;BME280;63518;49.572;1.106;2024-03-02T03:29:13;97592.88;;;2.81;100.00
74960;BME280;63518;49.572;1.106;2024-03-02T03:31:40;97591.78;;;2.82;100.00
74960;BME280;63518;49.572;1.106;2024-03-02T03:34:07;97572.09;;;2.86;100.00
74960;BME280;63518;49.572;1.106;2024-03-02T03:36:34;97567.53;;;2.81;100.00
74960;BME280;63518;49.572;1.106;2024-03-02T03:39:00;97576.19;;;2.64;100.00
74960;BME280;63518;49.572;1.106;2024-03-02T03:41:29;97558.03;;;2.78;100.00
74960;BME280;63518;49.572;1.106;2024-03-02T03:43:56;97578.75;;;2.79;100.00
74960;BME280;63518;49.572;1.106;2024-03-02T03:46:23;97567.19;;;3.06;100.00
74960;BME280;63518;49.572;1.106;2024-03-02T03:48:50;97568.91;;;2.78;100.00
74960;BME280;63518;49.572;1.106;2024-03-02T03:51:17;97565.00;;;2.66;100.00
74960;BME280;63518;49.572;1.106;2024-03-02T03:53:44;97563.75;;;3.20;100.00
74960;BME280;63518;49.572;1.106;2024-03-02T03:56:10;97561.16;;;2.91;100.00
74960;BME280;63518;49.572;1.106;2024-03-02T03:58:37;97565.59;;;3.05;100.00
74960;BME280;63518;49.572;1.106;2024-03-02T04:01:04;97574.50;;;3.11;100.00
74960;BME280;63518;49.572;1.106;2024-03-02T04:03:31;97552.81;;;2.82;100.00
74960;BME280;63518;49.572;1.106;2024-03-02T04:05:57;97561.66;;;2.93;100.00
74960;BME280;63518;49.572;1.106;2024-03-02T04:08:24;97555.63;;;2.96;100.00
74960;BME280;63518;49.572;1.106;2024-03-02T04:10:51;97556.94;;;3.17;100.00
74960;BME280;63518;49.572;1.106;2024-03-02T04:13:18;97572.00;;;3.15;100.00
74960;BME280;63518;49.572;1.106;2024-03-02T04:15:45;97560.88;;;3.30;100.00
74960;BME280;63518;49.572;1.106;2024-03-02T04:18:12;97554.69;;;3.05;100.00
74960;BME280;63518;49.572;1.106;2024-03-02T04:20:38;97555.84;;;3.18;100.00
74960;BME280;63518;49.572;1.106;2024-03-02T04:23:05;97564.53;;;3.39;100.00
74960;BME280;63518;49.572;1.106;2024-03-02T04:25:32;97563.16;;;3.23;100.00
74960;BME280;63518;49.572;1.106;2024-03-02T04:27:58;97549.31;;;3.19;100.00
74960;BME280;63518;49.572;1.106;2024-03-02T04:30:25;97557.47;;;3.38;100.00
74960;BME280;63518;49.572;1.106;2024-03-02T04:32:53;97558.94;;;3.30;100.00
74960;BME280;63518;49.572;1.106;2024-03-02T04:35:20;97557.84;;;3.50;100.00
74960;BME280;63518;49.572;1.106;2024-03-02T04:37:47;97564.41;;;3.49;100.00
74960;BME280;63518;49.572;1.106;2024-03-02T04:40:14;97534.56;;;3.01;100.00
74960;BME280;63518;49.572;1.106;2024-03-02T04:42:41;97544.56;;;3.25;100.00
74960;BME280;63518;49.572;1.106;2024-03-02T04:45:08;97538.41;;;3.19;100.00
74960;BME280;63518;49.572;1.106;2024-03-02T04:47:34;97540.84;;;3.21;100.00
74960;BME280;63518;49.572;1.106;2024-03-02T04:50:01;97557.44;;;3.43;100.00
74960;BME280;63518;49.572;1.106;2024-03-02T04:52:28;97543.56;;;3.21;100.00
74960;BME280;63518;49.572;1.106;2024-03-02T04:54:54;97553.00;;;3.28;100.00
74960;BME280;63518;49.572;1.106;2024-03-02T04:57:43;97561.03;;;3.20;100.00
74960;BME280;63518;49.572;1.106;2024-03-02T05:00:10;97554.75;;;3.38;100.00
74960;BME280;63518;49.572;1.106;2024-03-02T05:02:37;97549.25;;;3.43;100.00
74960;BME280;63518;49.572;1.106;2024-03-02T05:05:04;97546.00;;;3.41;100.00
74960;BME280;63518;49.572;1.106;2024-03-02T05:07:31;97547.16;;;2.97;100.00
74960;BME280;63518;49.572;1.106;2024-03-02T05:09:58;97542.22;;;3.18;100.00
74960;BME280;63518;49.572;1.106;2024-03-02T05:12:25;97539.13;;;3.25;100.00
74960;BME280;63518;49.572;1.106;2024-03-02T05:15:12;97541.81;;;3.11;100.00
74960;BME280;63518;49.572;1.106;2024-03-02T05:17:40;97543.75;;;3.24;100.00
74960;BME280;63518;49.572;1.106;2024-03-02T05:20:07;97551.06;;;2.91;100.00
74960;BME280;63518;49.572;1.106;2024-03-02T05:22:35;97564.09;;;2.94;100.00
74960;BME280;63518;49.572;1.106;2024-03-02T05:25:03;97559.53;;;3.08;100.00
74960;BME280;63518;49.572;1.106;2024-03-02T05:27:31;97567.13;;;3.12;100.00
74960;BME280;63518;49.572;1.106;2024-03-02T05:29:59;97568.16;;;2.97;100.00
74960;BME280;63518;49.572;1.106;2024-03-02T05:32:26;97566.84;;;3.13;100.00
74960;BME280;63518;49.572;1.106;2024-03-02T05:34:53;97562.66;;;3.21;100.00
74960;BME280;63518;49.572;1.106;2024-03-02T05:37:21;97573.97;;;3.09;100.00
74960;BME280;63518;49.572;1.106;2024-03-02T05:39:48;97561.94;;;2.91;100.00
74960;BME280;63518;49.572;1.106;2024-03-02T05:42:15;97557.16;;;2.83;100.00
74960;BME280;63518;49.572;1.106;2024-03-02T05:44:43;97583.09;;;3.18;100.00
74960;BME280;63518;49.572;1.106;2024-03-02T05:47:10;97576.03;;;3.17;100.00
74960;BME280;63518;49.572;1.106;2024-03-02T05:49:37;97576.34;;;3.16;100.00
74960;BME280;63518;49.572;1.106;2024-03-02T05:52:04;97576.28;;;3.58;100.00
74960;BME280;63518;49.572;1.106;2024-03-02T05:54:30;97561.50;;;2.84;100.00
74960;BME280;63518;49.572;1.106;2024-03-02T05:56:57;97557.19;;;3.21;100.00
74960;BME280;63518;49.572;1.106;2024-03-02T05:59:43;97569.47;;;3.18;100.00
74960;BME280;63518;49.572;1.106;2024-03-02T06:02:12;97569.22;;;3.20;100.00
74960;BME280;63518;49.572;1.106;2024-03-02T06:04:39;97574.50;;;3.30;100.00
74960;BME280;63518;49.572;1.106;2024-03-02T06:07:06;97566.31;;;3.30;100.00
74960;BME280;63518;49.572;1.106;2024-03-02T06:09:33;97547.47;;;3.15;100.00
74960;BME280;63518;49.572;1.106;2024-03-02T06:12:00;97542.59;;;3.12;100.00
74960;BME280;63518;49.572;1.106;2024-03-02T06:14:27;97538.19;;;2.97;100.00
74960;BME280;63518;49.572;1.106;2024-03-02T06:16:53;97556.16;;;3.17;100.00
74960;BME280;63518;49.572;1.106;2024-03-02T06:19:20;97552.69;;;3.11;100.00
74960;BME280;63518;49.572;1.106;2024-03-02T06:21:47;97561.78;;;3.44;100.00
74960;BME280;63518;49.572;1.106;2024-03-02T06:24:13;97559.31;;;3.24;100.00
74960;BME280;63518;49.572;1.106;2024-03-02T06:26:40;97571.19;;;3.14;100.00
74960;BME280;63518;49.572;1.106;2024-03-02T06:29:07;97571.19;;;2.95;100.00
74960;BME280;63518;49.572;1.106;2024-03-02T06:31:34;97571.34;;;3.23;100.00
74960;BME280;63518;49.572;1.106;2024-03-02T06:34:01;97582.25;;;3.60;100.00
74960;BME280;63518;49.572;1.106;2024-03-02T06:36:30;97579.06;;;3.16;100.00
74960;BME280;63518;49.572;1.106;2024-03-02T06:38:57;97576.44;;;3.48;100.00
74960;BME280;63518;49.572;1.106;2024-03-02T06:41:23;97562.84;;;3.05;100.00
74960;BME280;63518;49.572;1.106;2024-03-02T06:43:50;97576.84;;;3.18;100.00
74960;BME280;63518;49.572;1.106;2024-03-02T06:46:20;97585.84;;;3.37;100.00
74960;BME280;63518;49.572;1.106;2024-03-02T06:48:47;97566.09;;;3.07;100.00
74960;BME280;63518;49.572;1.106;2024-03-02T06:51:14;97580.91;;;3.39;100.00
74960;BME280;63518;49.572;1.106;2024-03-02T06:53:42;97565.13;;;3.17;100.00
74960;BME280;63518;49.572;1.106;2024-03-02T06:56:09;97575.44;;;3.39;100.00
74960;BME280;63518;49.572;1.106;2024-03-02T06:58:36;97569.78;;;3.35;100.00
74960;BME280;63518;49.572;1.106;2024-03-02T07:01:02;97560.00;;;3.53;100.00
74960;BME280;63518;49.572;1.106;2024-03-02T07:03:29;97585.41;;;3.49;100.00
74960;BME280;63518;49.572;1.106;2024-03-02T07:05:56;97569.56;;;3.32;100.00
74960;BME280;63518;49.572;1.106;2024-03-02T07:08:23;97567.44;;;3.48;100.00
74960;BME280;63518;49.572;1.106;2024-03-02T07:10:50;97564.16;;;3.64;100.00
74960;BME280;63518;49.572;1.106;2024-03-02T07:13:17;97571.53;;;3.83;100.00
74960;BME280;63518;49.572;1.106;2024-03-02T07:15:44;97562.34;;;3.60;100.00
74960;BME280;63518;49.572;1.106;2024-03-02T07:18:36;97563.47;;;3.59;100.00
74960;BME280;63518;49.572;1.106;2024-03-02T07:21:08;97561.44;;;3.64;100.00
74960;BME280;63518;49.572;1.106;2024-03-02T07:23:35;97567.69;;;3.84;100.00
74960;BME280;63518;49.572;1.106;2024-03-02T07:26:02;97574.41;;;3.73;100.00
74960;BME280;63518;49.572;1.106;2024-03-02T07:28:32;97568.75;;;3.69;100.00
74960;BME280;63518;49.572;1.106;2024-03-02T07:31:04;97589.25;;;3.67;100.00
74960;BME280;63518;49.572;1.106;2024-03-02T07:33:31;97583.84;;;3.80;100.00
74960;BME280;63518;49.572;1.106;2024-03-02T07:35:59;97573.25;;;3.60;100.00
74960;BME280;63518;49.572;1.106;2024-03-02T07:38:31;97564.94;;;4.16;100.00
74960;BME280;63518;49.572;1.106;2024-03-02T07:40:58;97577.38;;;3.57;100.00
74960;BME280;63518;49.572;1.106;2024-03-02T07:43:25;97564.16;;;3.83;100.00
74960;BME280;63518;49.572;1.106;2024-03-02T07:45:51;97578.97;;;3.77;100.00
74960;BME280;63518;49.572;1.106;2024-03-02T07:48:18;97560.34;;;3.98;100.00
74960;BME280;63518;49.572;1.106;2024-03-02T07:50:45;97572.34;;;3.83;100.00
74960;BME280;63518;49.572;1.106;2024-03-02T07:53:12;97565.63;;;4.08;100.00
74960;BME280;63518;49.572;1.106;2024-03-02T07:55:39;97559.50;;;3.84;100.00
74960;BME280;63518;49.572;1.106;2024-03-02T07:58:06;97577.28;;;4.28;100.00
74960;BME280;63518;49.572;1.106;2024-03-02T08:00:33;97567.31;;;4.04;100.00
74960;BME280;63518;49.572;1.106;2024-03-02T08:03:00;97574.06;;;4.39;100.00
74960;BME280;63518;49.572;1.106;2024-03-02T08:05:27;97565.16;;;4.34;100.00
74960;BME280;63518;49.572;1.106;2024-03-02T08:07:54;97566.19;;;4.38;100.00
74960;BME280;63518;49.572;1.106;2024-03-02T08:10:21;97578.00;;;4.33;100.00
74960;BME280;63518;49.572;1.106;2024-03-02T08:12:47;97581.50;;;4.20;100.00
74960;BME280;63518;49.572;1.106;2024-03-02T08:15:14;97570.03;;;4.50;100.00
74960;BME280;63518;49.572;1.106;2024-03-02T08:17:41;97571.53;;;4.84;100.00
74960;BME280;63518;49.572;1.106;2024-03-02T08:20:12;97574.69;;;4.64;100.00
74960;BME280;63518;49.572;1.106;2024-03-02T08:22:39;97579.13;;;4.73;100.00
74960;BME280;63518;49.572;1.106;2024-03-02T08:25:07;97574.25;;;4.84;100.00
74960;BME280;63518;49.572;1.106;2024-03-02T08:27:34;97566.38;;;4.83;100.00
74960;BME280;63518;49.572;1.106;2024-03-02T08:30:02;97563.53;;;4.60;100.00
74960;BME280;63518;49.572;1.106;2024-03-02T08:32:33;97556.16;;;4.88;100.00
74960;BME280;63518;49.572;1.106;2024-03-02T08:35:00;97567.97;;;4.97;100.00
74960;BME280;63518;49.572;1.106;2024-03-02T08:37:27;97575.28;;;5.02;100.00
74960;BME280;63518;49.572;1.106;2024-03-02T08:39:54;97580.09;;;5.19;100.00
74960;BME280;63518;49.572;1.106;2024-03-02T08:42:22;97570.75;;;5.33;100.00
74960;BME280;63518;49.572;1.106;2024-03-02T08:44:49;97578.47;;;5.54;100.00
74960;BME280;63518;49.572;1.106;2024-03-02T08:47:16;97572.63;;;5.69;100.00
74960;BME280;63518;49.572;1.106;2024-03-02T08:49:43;97576.63;;;5.63;100.00
74960;BME280;63518;49.572;1.106;2024-03-02T08:52:09;97560.44;;;5.53;100.00
74960;BME280;63518;49.572;1.106;2024-03-02T08:54:36;97564.63;;;5.73;100.00
74960;BME280;63518;49.572;1.106;2024-03-02T08:57:05;97569.16;;;5.55;100.00
74960;BME280;63518;49.572;1.106;2024-03-02T08:59:31;97570.59;;;5.75;100.00
74960;BME280;63518;49.572;1.106;2024-03-02T09:01:59;97577.22;;;5.38;100.00
74960;BME280;63518;49.572;1.106;2024-03-02T09:04:26;97567.66;;;5.13;100.00
74960;BME280;63518;49.572;1.106;2024-03-02T09:06:55;97556.06;;;5.29;100.00
74960;BME280;63518;49.572;1.106;2024-03-02T09:09:22;97561.06;;;5.50;100.00
74960;BME280;63518;49.572;1.106;2024-03-02T09:11:49;97565.03;;;5.44;100.00
74960;BME280;63518;49.572;1.106;2024-03-02T11:45:10;97552.44;;;6.32;100.00
74960;BME280;63518;49.572;1.106;2024-03-02T11:47:37;97564.69;;;7.40;100.00
74960;BME280;63518;49.572;1.106;2024-03-02T11:50:05;97553.78;;;6.83;100.00
74960;BME280;63518;49.572;1.106;2024-03-02T11:59:42;97555.09;;;6.94;100.00
74960;BME280;63518;49.572;1.106;2024-03-02T12:02:17;97546.84;;;6.86;100.00
74960;BME280;63518;49.572;1.106;2024-03-02T12:04:46;97546.28;;;7.23;100.00
74960;BME280;63518;49.572;1.106;2024-03-02T12:07:21;97542.66;;;6.97;100.00
74960;BME280;63518;49.572;1.106;2024-03-02T12:09:59;97544.09;;;6.86;100.00
74960;BME280;63518;49.572;1.106;2024-03-02T12:12:26;97542.88;;;7.18;100.00
74960;BME280;63518;49.572;1.106;2024-03-02T12:14:53;97541.94;;;7.31;100.00
74960;BME280;63518;49.572;1.106;2024-03-02T12:17:22;97538.34;;;7.13;100.00
74960;BME280;63518;49.572;1.106;2024-03-02T12:19:49;97535.94;;;7.64;100.00
74960;BME280;63518;49.572;1.106;2024-03-02T12:22:16;97534.50;;;7.66;100.00
74960;BME280;63518;49.572;1.106;2024-03-02T12:24:44;97525.59;;;7.17;100.00
74960;BME280;63518;49.572;1.106;2024-03-02T12:27:13;97523.84;;;7.39;100.00
74960;BME280;63518;49.572;1.106;2024-03-02T12:29:41;97535.31;;;7.93;100.00
74960;BME280;63518;49.572;1.106;2024-03-02T12:32:08;97530.13;;;7.56;100.00
74960;BME280;63518;49.572;1.106;2024-03-02T12:34:35;97526.44;;;7.70;100.00
74960;BME280;63518;49.572;1.106;2024-03-02T12:37:02;97519.63;;;7.58;100.00
74960;BME280;63518;49.572;1.106;2024-03-02T12:39:30;97521.72;;;7.96;100.00
74960;BME280;63518;49.572;1.106;2024-03-02T12:41:59;97522.22;;;7.46;100.00
74960;BME280;63518;49.572;1.106;2024-03-02T12:44:26;97525.44;;;7.66;100.00
74960;BME280;63518;49.572;1.106;2024-03-02T12:46:53;97523.84;;;7.39;100.00
74960;BME280;63518;49.572;1.106;2024-03-02T12:49:24;97520.94;;;7.35;100.00
74960;BME280;63518;49.572;1.106;2024-03-02T12:51:51;97532.56;;;7.32;100.00
74960;BME280;63518;49.572;1.106;2024-03-02T12:54:22;97524.81;;;7.25;100.00
74960;BME280;63518;49.572;1.106;2024-03-02T12:56:54;97520.13;;;7.52;100.00
74960;BME280;63518;49.572;1.106;2024-03-02T12:59:51;97530.47;;;7.38;100.00
74960;BME280;63518;49.572;1.106;2024-03-02T13:02:19;97517.06;;;6.53;100.00
74960;BME280;63518;49.572;1.106;2024-03-02T13:04:52;97521.75;;;6.53;100.00
74960;BME280;63518;49.572;1.106;2024-03-02T13:07:20;97536.66;;;6.29;100.00
74960;BME280;63518;49.572;1.106;2024-03-02T13:09:52;97528.47;;;6.38;100.00
74960;BME280;63518;49.572;1.106;2024-03-02T13:12:23;97540.16;;;6.61;100.00
74960;BME280;63518;49.572;1.106;2024-03-02T13:14:58;97538.47;;;6.82;100.00
74960;BME280;63518;49.572;1.106;2024-03-02T13:17:28;97533.53;;;6.53;100.00
74960;BME280;63518;49.572;1.106;2024-03-02T13:20:03;97547.75;;;6.72;100.00
74960;BME280;63518;49.572;1.106;2024-03-02T13:22:31;97539.91;;;6.88;100.00
74960;BME280;63518;49.572;1.106;2024-03-02T13:24:57;97546.84;;;6.37;100.00
74960;BME280;63518;49.572;1.106;2024-03-02T13:27:26;97543.59;;;6.75;100.00
74960;BME280;63518;49.572;1.106;2024-03-02T13:29:54;97555.59;;;6.17;100.00
74960;BME280;63518;49.572;1.106;2024-03-02T13:32:20;97551.16;;;6.30;100.00
74960;BME280;63518;49.572;1.106;2024-03-02T13:34:50;97549.25;;;6.39;100.00
74960;BME280;63518;49.572;1.106;2024-03-02T13:37:17;97557.44;;;6.70;100.00
74960;BME280;63518;49.572;1.106;2024-03-02T13:39:44;97557.13;;;6.32;100.00
74960;BME280;63518;49.572;1.106;2024-03-02T13:42:11;97556.00;;;6.33;100.00
74960;BME280;63518;49.572;1.106;2024-03-02T13:44:40;97555.09;;;6.15;100.00
74960;BME280;63518;49.572;1.106;2024-03-02T13:47:07;97548.88;;;6.63;100.00
74960;BME280;63518;49.572;1.106;2024-03-02T13:49:34;97545.22;;;6.36;100.00
74960;BME280;63518;49.572;1.106;2024-03-02T13:52:05;97552.09;;;6.65;100.00
74960;BME280;63518;49.572;1.106;2024-03-02T13:58:18;97549.84;;;6.27;100.00
74960;BME280;63518;49.572;1.106;2024-03-02T14:04:28;97537.25;;;6.66;100.00
74960;BME280;63518;49.572;1.106;2024-03-02T14:06:54;97539.22;;;6.74;100.00
74960;BME280;63518;49.572;1.106;2024-03-02T14:09:23;97536.34;;;6.79;100.00
74960;BME280;63518;49.572;1.106;2024-03-02T14:11:53;97526.63;;;6.73;100.00
74960;BME280;63518;49.572;1.106;2024-03-02T14:14:20;97523.31;;;6.36;100.00
74960;BME280;63518;49.572;1.106;2024-03-02T14:16:47;97523.16;;;6.50;100.00
74960;BME280;63518;49.572;1.106;2024-03-02T14:19:14;97521.31;;;6.68;100.00
74960;BME280;63518;49.572;1.106;2024-03-02T14:21:41;97523.75;;;6.30;100.00
74960;BME280;63518;49.572;1.106;2024-03-02T14:24:08;97524.50;;;6.61;100.00
74960;BME280;63518;49.572;1.106;2024-03-02T14:26:36;97525.25;;;6.93;100.00
74960;BME280;63518;49.572;1.106;2024-03-02T14:29:03;97511.41;;;7.07;100.00
74960;BME280;63518;49.572;1.106;2024-03-02T14:31:31;97514.75;;;6.86;100.00
74960;BME280;63518;49.572;1.106;2024-03-02T14:33:58;97507.25;;;6.61;100.00
74960;BME280;63518;49.572;1.106;2024-03-02T14:36:27;97516.78;;;6.24;100.00
74960;BME280;63518;49.572;1.106;2024-03-02T14:38:55;97513.88;;;6.20;100.00
74960;BME280;63518;49.572;1.106;2024-03-02T14:41:22;97516.28;;;6.53;100.00
74960;BME280;63518;49.572;1.106;2024-03-02T14:43:51;97512.81;;;6.38;100.00
74960;BME280;63518;49.572;1.106;2024-03-02T14:46:19;97511.97;;;6.78;100.00
74960;BME280;63518;49.572;1.106;2024-03-02T14:48:46;97522.88;;;6.12;100.00
74960;BME280;63518;49.572;1.106;2024-03-02T14:51:14;97522.31;;;6.32;100.00
74960;BME280;63518;49.572;1.106;2024-03-02T14:53:41;97531.97;;;6.78;100.00
74960;BME280;63518;49.572;1.106;2024-03-02T14:56:08;97524.09;;;6.85;100.00
74960;BME280;63518;49.572;1.106;2024-03-02T14:58:35;97528.81;;;7.11;100.00
74960;BME280;63518;49.572;1.106;2024-03-02T15:01:03;97524.41;;;6.75;100.00
74960;BME280;63518;49.572;1.106;2024-03-02T15:03:32;97520.25;;;7.21;100.00
74960;BME280;63518;49.572;1.106;2024-03-02T15:05:59;97529.59;;;6.94;100.00
74960;BME280;63518;49.572;1.106;2024-03-02T15:08:26;97526.09;;;7.19;100.00
74960;BME280;63518;49.572;1.106;2024-03-02T15:10:53;97529.31;;;7.21;100.00
74960;BME280;63518;49.572;1.106;2024-03-02T15:13:23;97530.69;;;6.76;100.00
74960;BME280;63518;49.572;1.106;2024-03-02T15:15:50;97528.94;;;6.97;100.00
74960;BME280;63518;49.572;1.106;2024-03-02T15:18:17;97535.56;;;6.96;100.00
74960;BME280;63518;49.572;1.106;2024-03-02T15:20:44;97526.50;;;6.78;100.00
74960;BME280;63518;49.572;1.106;2024-03-02T15:23:11;97531.69;;;6.97;100.00
74960;BME280;63518;49.572;1.106;2024-03-02T15:25:38;97522.84;;;7.09;100.00
74960;BME280;63518;49.572;1.106;2024-03-02T15:28:04;97519.03;;;6.61;100.00
74960;BME280;63518;49.572;1.106;2024-03-02T15:30:31;97508.94;;;6.88;100.00
74960;BME280;63518;49.572;1.106;2024-03-02T15:32:58;97521.53;;;6.97;100.00
74960;BME280;63518;49.572;1.106;2024-03-02T15:35:25;97522.31;;;6.81;100.00
74960;BME280;63518;49.572;1.106;2024-03-02T15:37:52;97516.88;;;6.98;100.00
74960;BME280;63518;49.572;1.106;2024-03-02T15:40:19;97521.13;;;6.64;100.00
74960;BME280;63518;49.572;1.106;2024-03-02T15:42:45;97525.50;;;6.74;100.00
74960;BME280;63518;49.572;1.106;2024-03-02T15:45:12;97525.38;;;6.79;100.00
74960;BME280;63518;49.572;1.106;2024-03-02T15:47:39;97513.94;;;6.86;100.00
74960;BME280;63518;49.572;1.106;2024-03-02T15:50:07;97523.88;;;6.73;100.00
74960;BME280;63518;49.572;1.106;2024-03-02T15:52:34;97521.47;;;6.71;100.00
74960;BME280;63518;49.572;1.106;2024-03-02T15:55:00;97528.66;;;7.16;100.00